sensor_id;sensor_type;location;lat;lon;timestamp;pressure;altitude;pressure_sealevel;temperature;humidity
13821;BME280;6981;42.678;23.294;2022-08-25T00:02:08;94642.38;;;18.39;100.00
13821;BME280;6981;42.678;23.294;2022-08-25T00:11:34;94795.41;;;19.52;100.00
13821;BME280;6981;42.678;23.294;2022-08-25T00:14:31;94847.84;;;19.91;100.00
13821;BME280;6981;42.678;23.294;2022-08-25T00:17:14;94621.44;;;18.43;100.00
13821;BME280;6981;42.678;23.294;2022-08-25T00:20:08;94612.66;;;18.42;100.00
13821;BME280;6981;42.678;23.294;2022-08-25T00:22:59;94651.97;;;18.63;100.00
13821;BME280;6981;42.678;23.294;2022-08-25T00:26:03;94637.28;;;18.61;100.00
13821;BME280;6981;42.678;23.294;2022-08-25T00:41:27;94623.06;;;18.55;100.00
13821;BME280;6981;42.678;23.294;2022-08-25T00:44:18;94662.81;;;18.74;100.00
13821;BME280;6981;42.678;23.294;2022-08-25T00:47:47;94844.88;;;19.88;100.00
13821;BME280;6981;42.678;23.294;2022-08-25T00:50:32;94639.47;;;18.52;100.00
13821;BME280;6981;42.678;23.294;2022-08-25T00:53:32;94631.16;;;18.37;100.00
13821;BME280;6981;42.678;23.294;2022-08-25T01:16:07;94590.09;;;18.96;100.00
13821;BME280;6981;42.678;23.294;2022-08-25T01:18:51;94725.75;;;19.76;100.00
13821;BME280;6981;42.678;23.294;2022-08-25T01:21:36;94807.50;;;20.16;100.00
13821;BME280;6981;42.678;23.294;2022-08-25T01:24:16;94811.41;;;19.80;100.00
13821;BME280;6981;42.678;23.294;2022-08-25T01:26:51;94813.75;;;19.65;100.00
13821;BME280;6981;42.678;23.294;2022-08-25T01:29:43;94610.81;;;18.31;100.00
13821;BME280;6981;42.678;23.294;2022-08-25T01:32:23;94674.50;;;18.73;100.00
13821;BME280;6981;42.678;23.294;2022-08-25T01:34:58;94600.00;;;18.21;100.00
13821;BME280;6981;42.678;23.294;2022-08-25T01:37:40;94758.56;;;19.09;100.00
13821;BME280;6981;42.678;23.294;2022-08-25T01:40:23;94607.88;;;17.93;100.00
13821;BME280;6981;42.678;23.294;2022-08-25T01:43:21;94613.53;;;18.08;100.00
13821;BME280;6981;42.678;23.294;2022-08-25T01:46:06;94744.81;;;18.88;100.00
13821;BME280;6981;42.678;23.294;2022-08-25T01:49:17;94813.22;;;19.39;100.00
13821;BME280;6981;42.678;23.294;2022-08-25T01:51:56;94628.06;;;18.05;100.00
13821;BME280;6981;42.678;23.294;2022-08-25T02:11:11;94763.44;;;19.52;100.00
13821;BME280;6981;42.678;23.294;2022-08-25T02:13:46;94597.47;;;18.54;100.00
13821;BME280;6981;42.678;23.294;2022-08-25T02:16:19;94807.44;;;19.82;100.00
13821;BME280;6981;42.678;23.294;2022-08-25T02:18:48;94598.66;;;18.47;100.00
13821;BME280;6981;42.678;23.294;2022-08-25T02:21:21;94602.16;;;18.36;100.00
13821;BME280;6981;42.678;23.294;2022-08-25T02:24:06;94568.53;;;18.18;100.00
13821;BME280;6981;42.678;23.294;2022-08-25T03:45:43;94728.78;;;19.12;100.00
13821;BME280;6981;42.678;23.294;2022-08-25T03:48:27;94602.63;;;18.33;100.00
13821;BME280;6981;42.678;23.294;2022-08-25T03:51:11;94556.78;;;18.14;100.00
13821;BME280;6981;42.678;23.294;2022-08-25T03:54:13;94597.63;;;18.36;100.00
13821;BME280;6981;42.678;23.294;2022-08-25T04:43:08;94797.25;;;20.24;100.00
13821;BME280;6981;42.678;23.294;2022-08-25T04:45:38;94732.75;;;19.94;100.00
13821;BME280;6981;42.678;23.294;2022-08-25T04:48:08;94717.00;;;20.09;100.00
13821;BME280;6981;42.678;23.294;2022-08-25T04:50:39;94805.44;;;20.68;100.00
13821;BME280;6981;42.678;23.294;2022-08-25T04:53:18;94750.41;;;20.45;100.00
13821;BME280;6981;42.678;23.294;2022-08-25T04:56:14;94750.06;;;20.58;100.00
13821;BME280;6981;42.678;23.294;2022-08-25T05:05:50;94798.00;;;22.17;100.00
13821;BME280;6981;42.678;23.294;2022-08-25T05:08:39;94794.22;;;22.45;100.00
13821;BME280;6981;42.678;23.294;2022-08-25T05:11:20;94707.59;;;21.93;100.00
13821;BME280;6981;42.678;23.294;2022-08-25T05:14:26;94784.94;;;22.58;100.00
13821;BME280;6981;42.678;23.294;2022-08-25T05:17:13;94813.06;;;22.02;100.00
13821;BME280;6981;42.678;23.294;2022-08-25T05:19:50;94589.25;;;20.90;100.00
13821;BME280;6981;42.678;23.294;2022-08-25T05:39:08;94658.75;;;21.43;100.00
13821;BME280;6981;42.678;23.294;2022-08-25T05:41:39;94687.06;;;21.71;100.00
13821;BME280;6981;42.678;23.294;2022-08-25T05:48:19;94782.97;;;21.90;100.00
13821;BME280;6981;42.678;23.294;2022-08-25T05:51:04;94588.75;;;20.71;100.00
13821;BME280;6981;42.678;23.294;2022-08-25T05:57:27;94675.97;;;21.84;100.00
13821;BME280;6981;42.678;23.294;2022-08-25T06:00:10;94588.69;;;21.68;100.00
13821;BME280;6981;42.678;23.294;2022-08-25T06:03:08;94784.31;;;23.25;100.00
13821;BME280;6981;42.678;23.294;2022-08-25T06:06:30;94641.19;;;22.11;100.00
13821;BME280;6981;42.678;23.294;2022-08-25T06:09:38;94588.75;;;22.15;100.00
13821;BME280;6981;42.678;23.294;2022-08-25T06:19:07;94590.69;;;21.88;100.00
13821;BME280;6981;42.678;23.294;2022-08-25T06:21:37;94777.53;;;23.54;100.00
13821;BME280;6981;42.678;23.294;2022-08-25T06:24:33;94567.72;;;22.91;100.00
13821;BME280;6981;42.678;23.294;2022-08-25T06:27:18;94637.03;;;24.11;100.00
13821;BME280;6981;42.678;23.294;2022-08-25T06:30:03;94630.78;;;23.29;100.00
13821;BME280;6981;42.678;23.294;2022-08-25T06:32:45;94715.19;;;24.45;100.00
13821;BME280;6981;42.678;23.294;2022-08-25T06:39:05;94704.44;;;24.24;100.00
13821;BME280;6981;42.678;23.294;2022-08-25T06:42:20;94754.31;;;26.25;100.00
13821;BME280;6981;42.678;23.294;2022-08-25T06:45:11;94713.25;;;26.04;100.00
13821;BME280;6981;42.678;23.294;2022-08-25T06:48:05;94566.44;;;24.15;100.00
13821;BME280;6981;42.678;23.294;2022-08-25T06:50:52;94598.50;;;24.81;100.00
13821;BME280;6981;42.678;23.294;2022-08-25T06:53:35;94597.19;;;25.33;100.00
13821;BME280;6981;42.678;23.294;2022-08-25T07:25:21;94755.75;;;29.48;100.00
13821;BME280;6981;42.678;23.294;2022-08-25T07:28:05;94637.69;;;29.38;100.00
13821;BME280;6981;42.678;23.294;2022-08-25T07:33:53;94676.72;;;29.73;100.00
13821;BME280;6981;42.678;23.294;2022-08-25T07:36:47;94620.41;;;27.50;100.00
13821;BME280;6981;42.678;23.294;2022-08-25T07:39:29;94572.47;;;27.23;100.00
13821;BME280;6981;42.678;23.294;2022-08-25T08:10:50;94695.50;;;27.85;100.00
13821;BME280;6981;42.678;23.294;2022-08-25T08:13:31;94690.25;;;28.77;100.00
13821;BME280;6981;42.678;23.294;2022-08-25T08:16:14;94558.09;;;26.42;100.00
13821;BME280;6981;42.678;23.294;2022-08-25T08:19:06;94562.97;;;25.82;100.00
13821;BME280;6981;42.678;23.294;2022-08-25T08:22:09;94622.19;;;26.45;100.00
13821;BME280;6981;42.678;23.294;2022-08-25T08:24:46;94550.06;;;26.37;100.00
13821;BME280;6981;42.678;23.294;2022-08-25T08:47:05;94727.72;;;25.69;100.00
13821;BME280;6981;42.678;23.294;2022-08-25T08:49:58;94670.91;;;25.76;100.00
13821;BME280;6981;42.678;23.294;2022-08-25T08:52:45;94543.09;;;25.78;100.00
13821;BME280;6981;42.678;23.294;2022-08-25T08:55:27;94717.84;;;26.04;100.00
13821;BME280;6981;42.678;23.294;2022-08-25T08:58:39;94662.41;;;25.59;100.00
13821;BME280;6981;42.678;23.294;2022-08-25T09:01:25;94655.63;;;25.71;100.00
13821;BME280;6981;42.678;23.294;2022-08-25T09:04:26;94617.84;;;25.81;100.00
13821;BME280;6981;42.678;23.294;2022-08-25T09:07:00;94655.75;;;25.90;100.00
13821;BME280;6981;42.678;23.294;2022-08-25T09:09:56;94716.38;;;25.77;100.00
13821;BME280;6981;42.678;23.294;2022-08-25T09:13:03;94542.53;;;25.03;100.00
13821;BME280;6981;42.678;23.294;2022-08-25T09:15:48;94548.66;;;25.87;100.00
13821;BME280;6981;42.678;23.294;2022-08-25T09:18:43;94536.66;;;25.74;100.00
13821;BME280;6981;42.678;23.294;2022-08-25T09:34:22;94592.31;;;26.65;100.00
13821;BME280;6981;42.678;23.294;2022-08-25T09:37:04;94545.63;;;26.22;100.00
13821;BME280;6981;42.678;23.294;2022-08-25T09:40:10;94719.59;;;27.58;100.00
13821;BME280;6981;42.678;23.294;2022-08-25T09:43:01;94532.25;;;26.84;100.00
13821;BME280;6981;42.678;23.294;2022-08-25T09:45:44;94482.38;;;26.20;100.00
13821;BME280;6981;42.678;23.294;2022-08-25T09:48:28;94494.97;;;26.91;100.00
13821;BME280;6981;42.678;23.294;2022-08-25T10:00:42;94508.75;;;25.65;100.00
13821;BME280;6981;42.678;23.294;2022-08-25T10:03:26;94626.97;;;26.48;100.00
13821;BME280;6981;42.678;23.294;2022-08-25T10:06:13;94688.88;;;27.11;100.00
13821;BME280;6981;42.678;23.294;2022-08-25T10:09:02;94652.81;;;27.02;99.18
13821;BME280;6981;42.678;23.294;2022-08-25T10:11:55;94634.50;;;26.51;100.00
13821;BME280;6981;42.678;23.294;2022-08-25T10:14:38;94519.81;;;26.88;90.72
13821;BME280;6981;42.678;23.294;2022-08-25T10:27:21;94678.34;;;27.10;98.63
13821;BME280;6981;42.678;23.294;2022-08-25T10:30:10;94598.66;;;26.27;100.00
13821;BME280;6981;42.678;23.294;2022-08-25T10:33:13;94486.97;;;24.84;100.00
13821;BME280;6981;42.678;23.294;2022-08-25T10:35:59;94501.97;;;25.73;97.91
13821;BME280;6981;42.678;23.294;2022-08-25T10:38:46;94495.88;;;25.91;98.12
13821;BME280;6981;42.678;23.294;2022-08-25T10:41:42;94708.41;;;27.45;93.78
13821;BME280;6981;42.678;23.294;2022-08-25T11:17:19;94637.69;;;27.86;94.62
13821;BME280;6981;42.678;23.294;2022-08-25T11:20:10;94453.63;;;25.29;98.83
13821;BME280;6981;42.678;23.294;2022-08-25T11:23:05;94486.41;;;25.94;100.00
13821;BME280;6981;42.678;23.294;2022-08-25T11:25:50;94483.69;;;26.22;97.08
13821;BME280;6981;42.678;23.294;2022-08-25T11:28:34;94502.63;;;26.60;92.38
13821;BME280;6981;42.678;23.294;2022-08-25T11:31:20;94495.16;;;25.80;98.76
13821;BME280;6981;42.678;23.294;2022-08-25T12:29:54;94598.75;;;26.12;100.00
13821;BME280;6981;42.678;23.294;2022-08-25T12:33:00;94408.13;;;25.03;99.70
13821;BME280;6981;42.678;23.294;2022-08-25T12:35:57;94465.75;;;25.26;98.86
13821;BME280;6981;42.678;23.294;2022-08-25T12:38:49;94370.97;;;24.77;99.53
13821;BME280;6981;42.678;23.294;2022-08-25T12:41:33;94493.13;;;25.96;97.47
13821;BME280;6981;42.678;23.294;2022-08-25T12:44:37;94396.22;;;25.43;94.99
13821;BME280;6981;42.678;23.294;2022-08-25T21:31:20;94645.94;;;20.53;100.00
13821;BME280;6981;42.678;23.294;2022-08-25T21:34:03;94480.78;;;19.53;100.00
13821;BME280;6981;42.678;23.294;2022-08-25T21:36:45;94561.63;;;19.97;100.00
13821;BME280;6981;42.678;23.294;2022-08-25T21:39:29;94454.16;;;19.36;100.00
13821;BME280;6981;42.678;23.294;2022-08-25T21:42:22;94574.44;;;20.17;100.00
13821;BME280;6981;42.678;23.294;2022-08-25T21:45:10;94689.38;;;20.71;100.00
13821;BME280;6981;42.678;23.294;2022-08-25T21:51:24;94439.00;;;19.20;100.00
13821;BME280;6981;42.678;23.294;2022-08-25T21:53:59;94572.31;;;19.97;100.00
13821;BME280;6981;42.678;23.294;2022-08-25T21:56:57;94672.66;;;20.58;100.00
13821;BME280;6981;42.678;23.294;2022-08-25T21:59:46;94583.84;;;20.03;100.00
13821;BME280;6981;42.678;23.294;2022-08-25T22:06:58;94636.53;;;20.51;100.00
13821;BME280;6981;42.678;23.294;2022-08-25T22:09:27;94649.81;;;20.46;100.00
13821;BME280;6981;42.678;23.294;2022-08-25T22:12:04;94439.50;;;19.17;100.00
13821;BME280;6981;42.678;23.294;2022-08-25T22:14:59;94636.69;;;20.61;100.00
13821;BME280;6981;42.678;23.294;2022-08-25T22:20:52;94444.94;;;19.27;100.00
13821;BME280;6981;42.678;23.294;2022-08-25T22:23:24;94573.63;;;20.16;100.00
13821;BME280;6981;42.678;23.294;2022-08-25T22:25:56;94513.56;;;19.54;100.00
13821;BME280;6981;42.678;23.294;2022-08-25T22:28:38;94411.91;;;19.07;100.00
13821;BME280;6981;42.678;23.294;2022-08-25T22:34:34;94410.53;;;18.87;100.00
13821;BME280;6981;42.678;23.294;2022-08-25T22:37:25;94562.06;;;19.72;100.00
13821;BME280;6981;42.678;23.294;2022-08-25T22:40:50;94412.06;;;18.67;100.00
13821;BME280;6981;42.678;23.294;2022-08-25T22:43:47;94627.06;;;20.05;100.00
13821;BME280;6981;42.678;23.294;2022-08-25T22:49:53;94477.88;;;19.04;100.00
13821;BME280;6981;42.678;23.294;2022-08-25T22:52:36;94539.16;;;19.38;100.00
13821;BME280;6981;42.678;23.294;2022-08-25T22:55:17;94364.38;;;18.32;100.00
13821;BME280;6981;42.678;23.294;2022-08-25T22:57:49;94621.44;;;19.84;100.00
13821;BME280;6981;42.678;23.294;2022-08-25T23:00:20;94444.97;;;18.77;100.00
13821;BME280;6981;42.678;23.294;2022-08-25T23:03:03;94401.78;;;18.42;100.00
13821;BME280;6981;42.678;23.294;2022-08-25T23:05:44;94536.41;;;19.33;100.00
13821;BME280;6981;42.678;23.294;2022-08-25T23:08:25;94636.22;;;19.92;100.00
13821;BME280;6981;42.678;23.294;2022-08-25T23:10:54;94434.72;;;18.69;100.00
13821;BME280;6981;42.678;23.294;2022-08-25T23:13:56;94407.31;;;18.69;100.00
13821;BME280;6981;42.678;23.294;2022-08-25T23:16:39;94419.66;;;18.91;100.00
13821;BME280;6981;42.678;23.294;2022-08-25T23:19:21;94465.47;;;19.10;100.00
13821;BME280;6981;42.678;23.294;2022-08-25T23:21:48;94415.44;;;18.79;100.00
13821;BME280;6981;42.678;23.294;2022-08-25T23:24:39;94614.91;;;20.31;100.00
13821;BME280;6981;42.678;23.294;2022-08-25T23:27:10;94607.00;;;20.36;100.00
13821;BME280;6981;42.678;23.294;2022-08-25T23:30:17;94397.22;;;19.04;100.00
13821;BME280;6981;42.678;23.294;2022-08-25T23:33:00;94388.13;;;19.00;100.00
13821;BME280;6981;42.678;23.294;2022-08-25T23:35:42;94604.34;;;20.36;100.00
13821;BME280;6981;42.678;23.294;2022-08-25T23:38:19;94453.91;;;19.21;100.00
13821;BME280;6981;42.678;23.294;2022-08-25T23:40:55;94408.78;;;18.93;100.00
13821;BME280;6981;42.678;23.294;2022-08-25T23:43:37;94425.00;;;19.08;100.00
13821;BME280;6981;42.678;23.294;2022-08-25T23:46:14;94506.91;;;19.39;100.00
13821;BME280;6981;42.678;23.294;2022-08-25T23:48:56;94374.13;;;18.71;100.00
13821;BME280;6981;42.678;23.294;2022-08-25T23:55:20;94393.56;;;18.72;100.00
13821;BME280;6981;42.678;23.294;2022-08-25T23:57:50;94351.78;;;18.55;100.00
